createdAt,value
2023-04-15T00:02:22.194Z,17.10
2023-04-15T00:04:54.845Z,16.70
2023-04-15T00:07:28.480Z,18.38
2023-04-15T00:10:01.426Z,19.23
2023-04-15T00:12:33.485Z,19.65
2023-04-15T00:15:06.480Z,19.17
2023-04-15T00:17:40.251Z,21.63
2023-04-15T00:20:13.261Z,20.83
2023-04-15T00:22:45.256Z,20.90
2023-04-15T00:25:18.071Z,21.67
2023-04-15T00:27:51.142Z,21.70
2023-04-15T00:30:23.166Z,23.98
2023-04-15T00:32:56.479Z,23.92
2023-04-15T00:35:28.629Z,23.52
2023-04-15T00:42:24.373Z,24.02
2023-04-15T00:44:54.855Z,23.42
2023-04-15T00:47:27.332Z,26.27
2023-04-15T00:50:00.560Z,24.98
2023-04-15T00:52:33.524Z,27.30
2023-04-15T00:55:06.591Z,27.30
2023-04-15T00:57:42.364Z,28.48
2023-04-15T01:04:07.242Z,33.60
2023-04-15T01:06:41.294Z,36.60
2023-04-15T01:09:16.154Z,36.25
2023-04-15T01:11:50.096Z,39.85
2023-04-15T01:14:23.175Z,46.15
2023-04-15T01:16:57.168Z,55.75
2023-04-15T01:19:30.198Z,55.35
2023-04-15T01:22:03.382Z,49.58
2023-04-15T01:24:39.442Z,48.88
2023-04-15T01:27:12.569Z,60.30
2023-04-15T01:29:46.238Z,54.92
2023-04-15T01:32:19.603Z,46.15
2023-04-15T01:34:53.850Z,42.38
2023-04-15T01:37:28.225Z,38.55
2023-04-15T01:40:01.626Z,37.60
2023-04-15T01:42:35.953Z,34.42
2023-04-15T01:45:10.127Z,31.58
2023-04-15T01:47:43.502Z,30.10
2023-04-15T01:50:19.505Z,29.38
2023-04-15T01:52:53.115Z,28.88
2023-04-15T01:55:25.753Z,28.75
2023-04-15T01:57:58.649Z,26.20
2023-04-15T02:00:33.528Z,26.95
2023-04-15T02:03:06.725Z,26.73
2023-04-15T02:05:40.074Z,26.23
2023-04-15T02:08:13.242Z,24.63
2023-04-15T02:10:46.852Z,24.08
2023-04-15T02:13:20.296Z,26.70
2023-04-15T02:15:55.379Z,23.48
2023-04-15T02:18:26.750Z,22.70
2023-04-15T02:21:01.255Z,21.52
2023-04-15T02:23:35.643Z,23.15
2023-04-15T02:26:08.937Z,22.95
2023-04-15T02:28:41.205Z,22.80
2023-04-15T02:31:14.680Z,22.58
2023-04-15T02:33:48.367Z,25.40
2023-04-15T02:36:21.450Z,22.95
2023-04-15T02:38:54.953Z,23.60
2023-04-15T02:41:30.303Z,26.23
2023-04-15T02:44:03.770Z,26.20
2023-04-15T02:46:37.191Z,24.27
2023-04-15T02:49:09.566Z,23.02
2023-04-15T02:51:43.956Z,23.33
2023-04-15T02:54:15.552Z,26.27
2023-04-15T02:56:49.453Z,25.67
2023-04-15T02:59:21.763Z,27.67
2023-04-15T03:01:52.856Z,24.23
2023-04-15T03:04:22.184Z,25.48
2023-04-15T03:06:51.367Z,26.92
2023-04-15T03:09:20.709Z,27.08
2023-04-15T03:11:50.009Z,26.48
2023-04-15T03:14:19.904Z,26.40
2023-04-15T03:16:51.492Z,26.30
2023-04-15T03:19:21.149Z,26.02
2023-04-15T03:21:50.099Z,26.58
2023-04-15T03:24:21.922Z,28.08
2023-04-15T03:26:51.148Z,29.30
2023-04-15T03:29:20.717Z,26.55
2023-04-15T03:31:50.333Z,26.60
2023-04-15T03:34:19.677Z,36.35
2023-04-15T03:36:49.140Z,26.92
2023-04-15T03:39:18.171Z,29.83
2023-04-15T03:41:47.961Z,30.75
2023-04-15T03:44:17.554Z,30.70
2023-04-15T03:46:46.776Z,29.15
2023-04-15T03:49:16.146Z,27.70
2023-04-15T03:51:45.957Z,26.85
2023-04-15T03:54:16.264Z,24.75
2023-04-15T03:56:45.591Z,23.63
2023-04-15T03:59:14.496Z,24.65
2023-04-15T04:01:43.914Z,23.52
2023-04-15T04:04:13.495Z,19.30
2023-04-15T04:06:43.117Z,19.60
2023-04-15T04:09:12.178Z,19.35
2023-04-15T04:11:41.471Z,17.65
2023-04-15T04:14:11.523Z,17.98
2023-04-15T04:16:40.741Z,18.70
2023-04-15T04:19:10.235Z,18.00
2023-04-15T04:21:40.609Z,16.05
2023-04-15T04:24:09.923Z,17.90
2023-04-15T04:26:39.032Z,17.73
2023-04-15T04:29:08.353Z,15.70
2023-04-15T04:31:38.084Z,17.30
2023-04-15T04:34:07.728Z,14.75
2023-04-15T04:36:36.849Z,14.15
2023-04-15T04:39:06.067Z,15.15
2023-04-15T04:41:35.290Z,13.68
2023-04-15T04:44:04.674Z,15.93
2023-04-15T04:46:34.508Z,13.73
2023-04-15T04:49:03.728Z,13.68
2023-04-15T04:51:33.506Z,14.10
2023-04-15T04:54:03.813Z,15.02
2023-04-15T04:56:33.194Z,14.13
2023-04-15T04:59:03.613Z,14.07
2023-04-15T05:01:33.054Z,15.70
2023-04-15T05:04:02.380Z,13.93
2023-04-15T05:06:32.651Z,14.02
2023-04-15T05:09:02.690Z,14.88
2023-04-15T05:11:32.401Z,13.82
2023-04-15T05:14:03.415Z,13.15
2023-04-15T05:16:32.815Z,14.52
2023-04-15T05:19:02.724Z,11.80
2023-04-15T05:21:32.929Z,11.20
2023-04-15T05:24:02.026Z,13.15
2023-04-15T05:26:31.300Z,10.85
2023-04-15T05:29:00.999Z,12.15
2023-04-15T05:31:30.440Z,11.48
2023-04-15T05:33:59.576Z,11.02
2023-04-15T05:36:29.813Z,10.70
2023-04-15T05:38:58.946Z,10.45
2023-04-15T05:41:28.360Z,10.73
2023-04-15T05:43:57.425Z,11.45
2023-04-15T05:46:26.727Z,16.90
2023-04-15T05:48:58.392Z,11.20
2023-04-15T05:51:28.396Z,10.63
2023-04-15T05:53:57.370Z,8.60
2023-04-15T05:56:28.256Z,9.63
2023-04-15T05:58:57.574Z,11.40
2023-04-15T06:01:27.308Z,9.43
2023-04-15T06:03:56.537Z,7.70
2023-04-15T06:06:26.197Z,7.07
2023-04-15T06:08:57.121Z,9.60
2023-04-15T06:11:27.894Z,14.75
2023-04-15T06:13:57.854Z,7.37
2023-04-15T06:16:27.217Z,7.50
2023-04-15T06:18:56.548Z,7.47
2023-04-15T06:21:25.735Z,6.90
2023-04-15T06:23:54.898Z,6.18
2023-04-15T06:26:24.253Z,6.30
2023-04-15T06:28:53.902Z,5.75
2023-04-15T06:31:23.286Z,6.05
2023-04-15T06:33:52.553Z,5.57
2023-04-15T06:36:22.269Z,5.45
2023-04-15T06:38:51.596Z,6.22
2023-04-15T06:41:20.828Z,6.28
2023-04-15T06:43:50.104Z,5.07
2023-04-15T06:46:19.265Z,5.18
2023-04-15T06:48:48.503Z,5.53
2023-04-15T06:51:17.912Z,6.22
2023-04-15T06:53:46.994Z,6.28
2023-04-15T06:56:16.207Z,4.57
2023-04-15T07:02:35.080Z,4.85
2023-04-15T07:05:04.156Z,4.93
2023-04-15T07:07:33.446Z,5.03
2023-04-15T07:10:04.671Z,5.13
2023-04-15T07:12:33.860Z,4.87
2023-04-15T07:15:03.541Z,5.30
2023-04-15T07:17:33.295Z,6.47
2023-04-15T07:20:02.553Z,4.68
2023-04-15T07:22:32.204Z,4.82
2023-04-15T07:25:11.328Z,4.55
2023-04-15T07:27:41.442Z,5.95
2023-04-15T07:30:11.616Z,6.00
2023-04-15T07:32:41.272Z,6.10
2023-04-15T07:35:10.984Z,5.30
2023-04-15T07:37:39.860Z,4.40
2023-04-15T07:40:10.211Z,6.47
2023-04-15T07:42:41.179Z,4.95
2023-04-15T07:45:11.098Z,6.03
2023-04-15T07:47:41.506Z,4.30
2023-04-15T07:50:12.606Z,6.00
2023-04-15T07:52:41.778Z,5.28
2023-04-15T07:55:11.916Z,5.18
2023-04-15T07:57:40.973Z,5.72
2023-04-15T08:00:10.998Z,11.13
2023-04-15T08:02:44.168Z,5.45
2023-04-15T08:05:15.096Z,5.97
2023-04-15T08:07:44.447Z,5.88
2023-04-15T08:10:14.145Z,5.47
2023-04-15T08:12:43.931Z,6.32
2023-04-15T08:15:14.071Z,5.80
2023-04-15T08:17:43.540Z,5.75
2023-04-15T08:20:13.171Z,4.57
2023-04-15T08:22:42.737Z,5.88
2023-04-15T08:25:15.747Z,4.10
2023-04-15T08:27:47.909Z,4.72
2023-04-15T08:30:17.342Z,4.65
2023-04-15T08:32:49.741Z,4.40
2023-04-15T08:35:19.445Z,6.22
2023-04-15T08:37:48.502Z,5.15
2023-04-15T08:40:18.022Z,4.70
2023-04-15T08:42:54.535Z,5.18
2023-04-15T08:45:24.657Z,5.57
2023-04-15T08:47:57.935Z,5.13
2023-04-15T08:50:30.645Z,5.40
2023-04-15T08:53:03.484Z,4.47
2023-04-15T08:55:37.602Z,6.35
2023-04-15T08:58:07.568Z,6.38
2023-04-15T09:00:37.175Z,5.47
2023-04-15T09:03:10.292Z,5.57
2023-04-15T09:05:40.358Z,5.95
2023-04-15T09:08:09.672Z,5.15
2023-04-15T09:14:53.216Z,5.55
2023-04-15T09:17:22.687Z,4.40
2023-04-15T09:20:08.904Z,5.32
2023-04-15T09:22:41.901Z,5.95
2023-04-15T09:25:17.314Z,5.70
2023-04-15T09:32:16.752Z,4.43
2023-04-15T09:34:45.989Z,4.60
2023-04-15T09:37:31.348Z,4.10
2023-04-15T09:40:01.499Z,4.60
2023-04-15T09:42:31.040Z,4.60
2023-04-15T09:45:13.246Z,4.32
2023-04-15T09:47:42.788Z,4.18
2023-04-15T09:50:12.636Z,4.57
2023-04-15T09:52:45.712Z,4.15
2023-04-15T09:55:15.835Z,4.53
2023-04-15T09:57:50.372Z,4.68
2023-04-15T10:00:19.889Z,27.23
2023-04-15T10:02:50.056Z,4.60
2023-04-15T10:05:19.912Z,6.93
2023-04-15T10:07:49.270Z,5.15
2023-04-15T10:10:19.183Z,4.03
2023-04-15T10:12:48.175Z,4.47
2023-04-15T10:15:21.493Z,3.72
2023-04-15T10:17:52.164Z,4.03
2023-04-15T10:20:22.414Z,4.10
2023-04-15T10:22:53.282Z,3.90
2023-04-15T10:25:23.079Z,7.75
2023-04-15T10:27:53.808Z,5.95
2023-04-15T10:30:23.881Z,4.25
2023-04-15T10:32:54.306Z,4.63
2023-04-15T10:35:24.650Z,3.97
2023-04-15T10:37:53.668Z,9.23
2023-04-15T10:40:32.356Z,5.50
2023-04-15T10:43:02.835Z,6.00
2023-04-15T10:45:37.759Z,4.53
2023-04-15T10:48:09.906Z,4.65
2023-04-15T10:50:40.351Z,6.57
2023-04-15T10:53:12.308Z,4.25
2023-04-15T10:55:41.692Z,4.40
2023-04-15T10:58:11.894Z,3.95
2023-04-15T11:04:59.208Z,4.18
2023-04-15T11:07:50.065Z,3.80
2023-04-15T11:10:22.289Z,5.00
2023-04-15T11:12:59.029Z,5.18
2023-04-15T11:15:47.380Z,4.53
2023-04-15T11:18:21.406Z,4.13
2023-04-15T11:20:57.456Z,5.43
2023-04-15T11:23:52.514Z,4.38
2023-04-15T11:26:28.220Z,4.68
2023-04-15T11:28:58.602Z,4.97
2023-04-15T11:31:30.360Z,9.88
2023-04-15T11:34:04.322Z,3.72
2023-04-15T11:36:34.258Z,4.45
2023-04-15T11:39:05.014Z,6.57
2023-04-15T11:41:34.369Z,7.13
2023-04-15T11:44:03.996Z,5.10
2023-04-15T11:46:33.225Z,6.22
2023-04-15T11:49:02.747Z,5.57
2023-04-15T11:51:36.141Z,5.38
2023-04-15T11:54:06.020Z,5.13
2023-04-15T11:56:35.224Z,4.57
2023-04-15T11:59:05.517Z,5.50
2023-04-15T12:01:40.553Z,5.28
2023-04-15T12:04:25.890Z,4.13
2023-04-15T12:06:55.431Z,4.75
2023-04-15T12:09:24.554Z,5.28
2023-04-15T12:11:55.028Z,4.07
2023-04-15T12:14:33.706Z,5.70
2023-04-15T12:17:06.012Z,3.92
2023-04-15T12:19:40.424Z,4.10
2023-04-15T12:22:14.990Z,3.92
2023-04-15T12:24:48.856Z,4.53
2023-04-15T12:27:18.839Z,4.63
2023-04-15T12:29:48.168Z,3.60
2023-04-15T12:32:21.203Z,6.78
2023-04-15T12:34:55.416Z,4.57
2023-04-15T12:37:25.165Z,4.63
2023-04-15T12:39:55.406Z,5.43
2023-04-15T12:42:24.607Z,4.97
2023-04-15T12:44:53.778Z,6.10
2023-04-15T12:47:22.995Z,8.75
2023-04-15T12:49:52.845Z,7.88
2023-04-15T12:52:24.325Z,8.10
2023-04-15T12:54:54.492Z,9.35
2023-04-15T12:57:23.590Z,8.98
2023-04-15T12:59:52.711Z,8.70
2023-04-15T13:02:25.124Z,12.38
2023-04-15T13:04:55.076Z,8.90
2023-04-15T13:07:24.105Z,8.50
2023-04-15T13:09:53.525Z,9.50
2023-04-15T13:12:23.092Z,10.00
2023-04-15T13:14:52.293Z,10.75
2023-04-15T13:17:23.163Z,11.90
2023-04-15T13:19:52.222Z,11.98
2023-04-15T13:22:21.536Z,12.80
2023-04-15T13:24:52.571Z,13.63
2023-04-15T13:27:22.406Z,14.75
2023-04-15T13:29:51.465Z,14.60
2023-04-15T13:32:20.769Z,14.88
2023-04-15T13:34:50.136Z,14.98
2023-04-15T13:37:19.439Z,16.13
2023-04-15T13:39:48.869Z,16.20
2023-04-15T13:42:18.086Z,15.23
2023-04-15T13:44:47.220Z,13.32
2023-04-15T13:47:17.377Z,16.08
2023-04-15T13:49:46.469Z,18.00
2023-04-15T13:52:15.806Z,14.73
2023-04-15T13:54:45.321Z,12.45
2023-04-15T13:57:15.370Z,13.25
2023-04-15T14:03:57.866Z,12.63
2023-04-15T14:06:28.245Z,13.32
2023-04-15T14:08:58.188Z,12.35
2023-04-15T14:11:27.260Z,13.65
2023-04-15T14:13:56.374Z,13.40
2023-04-15T14:16:25.544Z,12.35
2023-04-15T14:18:55.363Z,14.63
2023-04-15T14:21:24.128Z,12.50
2023-04-15T14:23:53.387Z,13.75
2023-04-15T14:26:22.173Z,19.48
2023-04-15T14:28:51.505Z,46.30
2023-04-15T14:31:21.229Z,18.40
2023-04-15T14:33:50.577Z,18.73
2023-04-15T14:36:19.748Z,16.25
2023-04-15T14:38:48.950Z,18.45
2023-04-15T14:41:18.344Z,20.77
2023-04-15T14:43:47.562Z,17.83
2023-04-15T14:46:17.343Z,18.67
2023-04-15T14:48:46.545Z,20.35
2023-04-15T14:51:15.764Z,18.83
2023-04-15T14:53:44.967Z,16.88
2023-04-15T14:56:14.159Z,18.73
2023-04-15T14:58:43.222Z,21.13
2023-04-15T15:05:03.389Z,21.80
2023-04-15T15:07:32.589Z,21.38
2023-04-15T15:10:02.224Z,23.08
2023-04-15T15:12:31.482Z,21.15
2023-04-15T15:15:01.581Z,20.83
2023-04-15T15:17:32.619Z,19.33
2023-04-15T15:20:01.582Z,17.75
2023-04-15T15:22:30.630Z,15.75
2023-04-15T15:25:00.283Z,14.45
2023-04-15T15:27:29.760Z,14.05
2023-04-15T15:29:58.918Z,13.85
2023-04-15T15:32:28.057Z,18.25
2023-04-15T15:34:56.965Z,19.08
2023-04-15T15:37:26.258Z,23.60
2023-04-15T15:39:55.354Z,22.88
2023-04-15T15:42:24.778Z,24.02
2023-04-15T15:44:54.277Z,21.83
2023-04-15T15:47:24.244Z,20.15
2023-04-15T15:49:53.464Z,22.90
2023-04-15T15:52:22.694Z,21.00
2023-04-15T15:54:51.899Z,21.52
2023-04-15T15:57:20.735Z,20.75
2023-04-15T15:59:51.177Z,20.10
2023-04-15T16:02:40.082Z,21.27
2023-04-15T16:05:13.204Z,18.95
2023-04-15T16:07:42.375Z,18.67
2023-04-15T16:10:12.249Z,20.75
2023-04-15T16:12:42.608Z,29.98
2023-04-15T16:15:12.052Z,34.38
2023-04-15T16:17:41.132Z,40.85
2023-04-15T16:20:10.599Z,42.42
2023-04-15T16:22:40.355Z,43.35
2023-04-15T16:25:09.685Z,41.85
2023-04-15T16:30:12.017Z,40.72
2023-04-15T16:32:41.241Z,37.55
2023-04-15T16:35:10.714Z,37.40
2023-04-15T16:37:39.855Z,34.00
2023-04-15T16:40:09.473Z,32.28
2023-04-15T16:42:38.341Z,32.00
2023-04-15T16:45:07.981Z,29.55
2023-04-15T16:47:37.045Z,27.80
2023-04-15T16:50:06.521Z,26.20
2023-04-15T16:52:35.710Z,23.90
2023-04-15T16:55:07.514Z,23.10
2023-04-15T16:58:00.481Z,21.60
2023-04-15T17:00:26.321Z,19.65
2023-04-15T17:02:57.259Z,16.40
2023-04-15T17:05:28.218Z,13.10
2023-04-15T17:07:57.355Z,11.57
2023-04-15T17:10:26.290Z,10.90
2023-04-15T17:12:57.631Z,12.23
2023-04-15T17:15:26.975Z,10.57
2023-04-15T17:17:56.020Z,10.88
2023-04-15T17:20:25.348Z,10.35
2023-04-15T17:22:54.708Z,11.57
2023-04-15T17:25:24.480Z,11.57
2023-04-15T17:27:53.464Z,11.07
2023-04-15T17:30:22.617Z,11.98
2023-04-15T17:32:53.115Z,11.65
2023-04-15T17:35:22.440Z,12.52
2023-04-15T17:37:51.739Z,11.98
2023-04-15T17:40:20.851Z,12.50
2023-04-15T17:42:50.298Z,12.88
2023-04-15T17:45:19.831Z,12.85
2023-04-15T17:47:49.712Z,13.88
2023-04-15T17:50:18.892Z,16.25
2023-04-15T17:52:49.318Z,15.52
2023-04-15T17:55:18.458Z,15.13
2023-04-15T17:57:48.100Z,15.05
2023-04-15T18:00:18.443Z,13.73
2023-04-15T18:02:48.049Z,14.95
2023-04-15T18:05:17.043Z,13.90
2023-04-15T18:07:46.573Z,12.77
2023-04-15T18:10:15.619Z,12.35
2023-04-15T18:12:44.608Z,12.38
2023-04-15T18:15:15.644Z,11.88
2023-04-15T18:17:44.948Z,11.35
2023-04-15T18:20:13.914Z,11.80
2023-04-15T18:22:44.530Z,12.43
2023-04-15T18:25:13.675Z,12.00
2023-04-15T18:27:42.954Z,12.98
2023-04-15T18:30:13.243Z,12.35
2023-04-15T18:32:43.264Z,12.07
2023-04-15T18:35:12.248Z,12.75
2023-04-15T18:37:41.942Z,12.43
2023-04-15T18:40:11.636Z,11.93
2023-04-15T18:42:41.121Z,14.85
2023-04-15T18:45:10.552Z,12.25
2023-04-15T18:47:39.828Z,11.85
2023-04-15T18:50:09.352Z,12.65
2023-04-15T18:52:38.573Z,12.32
2023-04-15T18:55:07.971Z,12.70
2023-04-15T18:57:37.847Z,14.13
2023-04-15T19:00:07.816Z,15.00
2023-04-15T19:02:36.971Z,15.32
2023-04-15T19:05:07.029Z,16.83
2023-04-15T19:07:37.960Z,20.15
2023-04-15T19:10:07.829Z,19.85
2023-04-15T19:12:38.099Z,19.92
2023-04-15T19:15:49.899Z,19.25
2023-04-15T19:18:19.498Z,18.23
2023-04-15T19:20:51.432Z,19.80
2023-04-15T19:23:20.527Z,18.45
2023-04-15T19:25:49.585Z,18.05
2023-04-15T19:28:18.798Z,17.90
2023-04-15T19:30:47.914Z,17.77
2023-04-15T19:33:17.183Z,18.27
2023-04-15T19:35:46.315Z,18.17
2023-04-15T19:38:15.810Z,19.98
2023-04-15T19:40:44.926Z,19.08
2023-04-15T19:43:14.268Z,16.90
2023-04-15T19:45:43.310Z,15.55
2023-04-15T19:48:12.486Z,14.18
2023-04-15T19:50:41.541Z,16.65
2023-04-15T19:53:10.772Z,18.42
2023-04-15T19:55:39.707Z,22.05
2023-04-15T19:58:08.991Z,22.95
2023-04-15T20:00:39.328Z,20.77
2023-04-15T20:03:09.410Z,19.40
2023-04-15T20:05:39.752Z,16.52
2023-04-15T20:08:09.884Z,14.25
2023-04-15T20:10:40.181Z,11.70
2023-04-15T20:13:10.087Z,11.30
2023-04-15T20:15:40.418Z,12.73
2023-04-15T20:18:10.402Z,12.40
2023-04-15T20:20:42.200Z,14.55
2023-04-15T20:23:13.320Z,12.23
2023-04-15T20:25:45.716Z,11.48
2023-04-15T20:30:49.925Z,11.60
2023-04-15T20:33:22.578Z,12.23
2023-04-15T20:38:25.847Z,13.90
2023-04-15T20:43:29.479Z,12.57
2023-04-15T20:46:07.004Z,13.10
2023-04-15T20:48:50.079Z,12.52
2023-04-15T20:51:23.093Z,13.48
2023-04-15T20:53:54.645Z,14.70
2023-04-15T20:56:27.836Z,13.90
2023-04-15T20:58:59.002Z,15.48
2023-04-15T21:01:32.226Z,14.65
2023-04-15T21:04:03.484Z,16.13
2023-04-15T21:06:36.797Z,16.40
2023-04-15T21:09:08.561Z,15.85
2023-04-15T21:11:57.356Z,18.30
2023-04-15T21:14:32.366Z,18.50
2023-04-15T21:17:11.213Z,19.08
2023-04-15T21:19:44.048Z,21.52
2023-04-15T21:22:15.691Z,22.65
2023-04-15T21:24:47.853Z,21.92
2023-04-15T21:27:20.191Z,24.25
2023-04-15T21:29:52.370Z,25.63
2023-04-15T21:34:56.117Z,26.83
2023-04-15T21:37:27.675Z,27.77
2023-04-15T21:39:59.237Z,26.05
2023-04-15T21:42:32.377Z,23.00
2023-04-15T21:45:04.011Z,24.27
2023-04-15T21:48:05.214Z,22.83
2023-04-15T21:50:28.231Z,19.42
2023-04-15T21:52:59.562Z,14.27
2023-04-15T21:55:32.752Z,11.17
2023-04-15T21:58:05.911Z,10.02
2023-04-15T22:00:39.132Z,9.07
2023-04-15T22:03:13.313Z,10.13
2023-04-15T22:05:51.270Z,10.15
2023-04-15T22:08:23.334Z,10.27
2023-04-15T22:10:55.902Z,11.10
2023-04-15T22:13:27.620Z,12.20
2023-04-15T22:15:59.186Z,12.38
2023-04-15T22:18:31.173Z,11.32
2023-04-15T22:21:04.369Z,13.18
2023-04-15T22:23:36.998Z,17.35
2023-04-15T22:26:10.304Z,17.38
2023-04-15T22:28:41.527Z,18.92
2023-04-15T22:31:14.059Z,16.75
2023-04-15T22:33:45.926Z,16.92
2023-04-15T22:36:19.409Z,17.10
2023-04-15T22:38:52.854Z,17.90
2023-04-15T22:41:25.440Z,18.75
2023-04-15T22:43:57.438Z,108.63
2023-04-15T22:46:29.492Z,58.10
2023-04-15T22:49:01.282Z,29.70
2023-04-15T22:51:35.700Z,17.80
2023-04-15T22:54:07.709Z,16.15
2023-04-15T22:56:40.303Z,15.50
2023-04-15T22:59:11.596Z,14.50
2023-04-15T23:01:43.915Z,13.07
2023-04-15T23:04:23.572Z,14.13
2023-04-15T23:07:01.165Z,18.15
2023-04-15T23:09:32.666Z,12.82
2023-04-15T23:12:06.318Z,12.48
2023-04-15T23:14:37.507Z,13.00
2023-04-15T23:17:09.469Z,12.43
2023-04-15T23:19:42.005Z,12.00
2023-04-15T23:22:14.227Z,11.60
2023-04-15T23:24:46.742Z,12.40
2023-04-15T23:27:20.112Z,10.93
2023-04-15T23:29:52.997Z,10.98
2023-04-15T23:32:26.729Z,11.68
2023-04-15T23:34:58.533Z,10.40
2023-04-15T23:37:30.386Z,11.13
2023-04-15T23:40:01.555Z,12.80
2023-04-15T23:42:34.390Z,13.32
2023-04-15T23:45:06.313Z,15.32
2023-04-15T23:47:38.935Z,20.15
2023-04-15T23:50:12.520Z,22.50
2023-04-15T23:52:44.575Z,18.45
2023-04-15T23:57:48.940Z,19.95
